Time;durP1;ratioP1;P1;durP2;ratioP2;P2;SDS_P1;SDS_P2;PMS_P1;PMS_P2;Temp;Humidity;BMP_temperature;BMP_pressure;BME280_temperature;BME280_humidity;BME280_pressure;Samples;Min_cycle;Max_cycle;Signal;HPM_P1;HPM_P2
2022/02/18 00:00:32;;;;;;;0.60;0.60;;;1.00;99.90;;;;;;6286306;28;20278;-72
2022/02/18 00:03:40;;;;;;;0.70;0.70;;;1.00;99.90;;;;;;6285103;28;20301;-70
2022/02/18 00:06:46;;;;;;;0.70;0.70;;;0.90;99.90;;;;;;6286242;28;20363;-71
2022/02/18 00:09:51;;;;;;;0.70;0.70;;;0.80;99.90;;;;;;6285852;28;20322;-71
2022/02/18 00:12:56;;;;;;;0.60;0.60;;;0.80;99.90;;;;;;6289576;28;20569;-70
2022/02/18 00:16:02;;;;;;;0.73;0.73;;;0.70;99.90;;;;;;6290791;28;20276;-71
2022/02/18 00:19:09;;;;;;;0.80;0.80;;;0.70;99.90;;;;;;6290433;28;20298;-71
2022/02/18 00:22:15;;;;;;;0.60;0.60;;;0.60;99.90;;;;;;6289606;28;20496;-71
2022/02/18 00:25:20;;;;;;;1.00;1.00;;;0.60;99.90;;;;;;6290503;28;20270;-71
2022/02/18 00:28:27;;;;;;;0.80;0.80;;;0.50;99.90;;;;;;6290738;28;20298;-71
2022/02/18 00:31:32;;;;;;;0.93;0.93;;;0.50;99.90;;;;;;6291177;28;20294;-72
2022/02/18 00:34:41;;;;;;;3.07;1.10;;;0.50;99.90;;;;;;6290280;28;20309;-71
2022/02/18 00:37:48;;;;;;;0.70;0.70;;;0.50;99.90;;;;;;6289252;28;20299;-72
2022/02/18 00:40:53;;;;;;;0.70;0.70;;;0.40;99.90;;;;;;6290454;28;20282;-72
2022/02/18 00:43:58;;;;;;;0.90;0.90;;;0.40;99.90;;;;;;6289748;28;20569;-72
2022/02/18 00:47:06;;;;;;;0.63;0.63;;;0.30;99.90;;;;;;6289969;28;20272;-72
2022/02/18 00:50:13;;;;;;;0.80;0.80;;;0.30;99.90;;;;;;6289498;28;20462;-71
2022/02/18 00:53:18;;;;;;;0.80;0.80;;;0.30;99.90;;;;;;6271522;28;20473;-71
2022/02/18 00:56:24;;;;;;;0.80;0.80;;;0.30;99.90;;;;;;6290400;28;20353;-71
2022/02/18 00:59:32;;;;;;;0.63;0.63;;;0.30;99.90;;;;;;6288998;28;20293;-71
2022/02/18 01:02:38;;;;;;;0.70;0.70;;;0.30;99.90;;;;;;6288717;28;20298;-71
2022/02/18 01:05:46;;;;;;;0.70;0.70;;;0.30;99.90;;;;;;6290093;28;20273;-71
2022/02/18 01:08:51;;;;;;;0.80;0.80;;;0.30;99.90;;;;;;6289170;28;20303;-71
2022/02/18 01:11:56;;;;;;;0.87;0.87;;;0.30;99.90;;;;;;6289350;28;20602;-71
2022/02/18 01:15:02;;;;;;;0.77;0.77;;;0.20;99.90;;;;;;6287805;28;20273;-71
2022/02/18 01:18:10;;;;;;;0.90;0.90;;;0.20;99.90;;;;;;6271446;28;20298;-71
2022/02/18 01:21:17;;;;;;;0.80;0.80;;;0.20;99.90;;;;;;6270310;28;20277;-72
2022/02/18 01:24:23;;;;;;;0.83;0.83;;;0.20;99.90;;;;;;6289032;28;20297;-72
2022/02/18 01:27:28;;;;;;;0.80;0.80;;;0.20;99.90;;;;;;6271234;28;20476;-71
2022/02/18 01:30:34;;;;;;;1.20;0.90;;;0.20;99.90;;;;;;6289074;28;20278;-71
2022/02/18 01:33:39;;;;;;;0.90;0.90;;;0.30;99.90;;;;;;6271267;28;20373;-71
2022/02/18 01:36:46;;;;;;;0.97;0.97;;;0.30;99.90;;;;;;6270941;28;20279;-71
2022/02/18 01:39:51;;;;;;;0.90;0.90;;;0.30;99.90;;;;;;6287914;28;20298;-71
2022/02/18 01:42:57;;;;;;;0.90;0.90;;;0.30;99.90;;;;;;6288592;28;20299;-71
2022/02/18 01:46:02;;;;;;;0.73;0.73;;;0.30;99.90;;;;;;6289129;28;20273;-71
2022/02/18 01:49:08;;;;;;;0.90;0.90;;;0.30;99.90;;;;;;6270736;28;20302;-71
2022/02/18 01:52:15;;;;;;;1.00;1.00;;;0.40;99.90;;;;;;6270127;28;20467;-72
2022/02/18 01:55:23;;;;;;;0.83;0.83;;;0.40;99.90;;;;;;6270771;28;20276;-71
2022/02/18 01:58:30;;;;;;;1.07;1.07;;;0.40;99.90;;;;;;6288044;28;20317;-71
2022/02/18 02:01:36;;;;;;;0.90;0.90;;;0.40;99.90;;;;;;6287959;28;20281;-71
2022/02/18 02:04:45;;;;;;;0.90;0.90;;;0.40;99.90;;;;;;6287833;28;20297;-71
2022/02/18 02:07:59;;;;;;;0.80;0.80;;;0.40;99.90;;;;;;6287441;28;20297;-71
2022/02/18 02:11:05;;;;;;;0.90;0.90;;;0.40;99.90;;;;;;6280834;28;20267;-71
2022/02/18 02:14:12;;;;;;;0.90;0.90;;;0.40;99.90;;;;;;6269316;28;20369;-71
2022/02/18 02:17:20;;;;;;;1.07;1.07;;;0.40;99.90;;;;;;6269872;28;20467;-72
2022/02/18 02:20:25;;;;;;;0.80;0.80;;;0.40;99.90;;;;;;6270093;28;20272;-72
2022/02/18 02:23:32;;;;;;;1.00;1.00;;;0.40;99.90;;;;;;6287276;28;20305;-71
2022/02/18 02:26:38;;;;;;;0.70;0.70;;;0.40;99.90;;;;;;6270750;28;20273;-72
2022/02/18 02:29:44;;;;;;;1.00;1.00;;;0.40;99.90;;;;;;6270241;28;20301;-71
2022/02/18 02:32:51;;;;;;;0.90;0.90;;;0.40;99.90;;;;;;6269537;28;20239;-71
2022/02/18 02:35:57;;;;;;;0.90;0.90;;;0.40;99.90;;;;;;6269491;28;20293;-71
2022/02/18 02:39:05;;;;;;;0.90;0.90;;;0.40;99.90;;;;;;6269616;28;20296;-72
2022/02/18 02:42:12;;;;;;;1.10;1.10;;;0.40;99.90;;;;;;6269611;28;20274;-72
2022/02/18 02:45:18;;;;;;;1.00;1.00;;;0.30;99.90;;;;;;6269257;28;20274;-72
2022/02/18 02:48:26;;;;;;;1.10;1.10;;;0.30;99.90;;;;;;6269351;28;20297;-72
2022/02/18 02:51:56;;;;;;;1.00;1.00;;;0.30;99.90;;;;;;6277429;28;20272;-72
2022/02/18 02:55:04;;;;;;;0.93;0.93;;;0.20;99.90;;;;;;6285779;28;20277;-72
2022/02/18 02:58:10;;;;;;;1.10;1.10;;;0.20;99.90;;;;;;6269297;28;20306;-72
2022/02/18 03:01:16;;;;;;;1.03;1.03;;;0.10;99.90;;;;;;6269933;28;20273;-71
2022/02/18 03:04:25;;;;;;;0.90;0.90;;;0.10;99.90;;;;;;6268804;28;20302;-72
2022/02/18 03:07:33;;;;;;;1.03;1.00;;;0.10;99.90;;;;;;6268928;28;20292;-72
2022/02/18 03:11:14;;;;;;;1.00;1.00;;;0.10;99.90;;;;;;6269088;28;20273;-72
2022/02/18 03:14:14;;;;;;;0.80;0.80;;;0.00;99.90;;;;;;6268394;28;20295;-71
2022/02/18 03:17:44;;;;;;;0.97;0.97;;;0.00;99.90;;;;;;6276009;28;20295;-72
2022/02/18 03:20:57;;;;;;;0.90;0.90;;;0.00;99.90;;;;;;6268846;28;20274;-72
2022/02/18 03:24:03;;;;;;;1.23;0.90;;;0.00;99.90;;;;;;6268480;28;20580;-72
2022/02/18 03:27:13;;;;;;;1.00;1.00;;;0.00;99.90;;;;;;6285164;28;20281;-72
2022/02/18 03:30:19;;;;;;;1.00;1.00;;;0.00;99.90;;;;;;6268163;28;20271;-72
2022/02/18 03:33:26;;;;;;;0.80;0.80;;;0.00;99.90;;;;;;6284436;28;20332;-71
2022/02/18 03:36:33;;;;;;;1.70;1.00;;;0.00;99.90;;;;;;6268186;28;20577;-72
2022/02/18 03:39:39;;;;;;;0.97;0.97;;;-0.10;99.90;;;;;;6267841;28;20298;-71
2022/02/18 03:42:50;;;;;;;1.00;1.00;;;-0.10;99.90;;;;;;6268795;28;20300;-71
2022/02/18 03:45:56;;;;;;;1.07;1.07;;;-0.10;99.90;;;;;;6271865;28;20275;-71
2022/02/18 03:49:06;;;;;;;1.13;1.13;;;-0.10;99.90;;;;;;6273567;28;20291;-71
2022/02/18 03:52:12;;;;;;;1.80;1.10;;;-0.10;99.90;;;;;;6273026;28;20273;-72
2022/02/18 03:55:17;;;;;;;1.00;1.00;;;-0.10;99.90;;;;;;6291638;28;20296;-71
2022/02/18 03:58:29;;;;;;;1.33;1.20;;;-0.10;99.90;;;;;;6272978;28;20296;-71
2022/02/18 04:01:34;;;;;;;1.30;1.30;;;-0.20;99.90;;;;;;6271892;28;20319;-72
2022/02/18 04:04:40;;;;;;;1.43;1.30;;;-0.20;99.90;;;;;;6270660;28;20481;-72
2022/02/18 04:07:58;;;;;;;1.23;1.13;;;-0.20;99.90;;;;;;6272537;28;20316;-72
2022/02/18 04:11:05;;;;;;;1.00;1.00;;;-0.20;99.90;;;;;;6289336;28;20275;-72
2022/02/18 04:14:15;;;;;;;1.20;1.20;;;-0.20;99.90;;;;;;6273481;28;20301;-71
2022/02/18 04:17:27;;;;;;;1.20;1.20;;;-0.20;99.90;;;;;;6272840;28;20464;-72
2022/02/18 04:20:43;;;;;;;2.20;1.10;;;-0.20;99.90;;;;;;6272595;28;20264;-71
2022/02/18 04:24:27;;;;;;;1.10;1.10;;;-0.20;99.90;;;;;;6279475;28;20305;-71
2022/02/18 04:27:32;;;;;;;1.20;1.17;;;-0.20;99.90;;;;;;6272188;28;20290;-71
2022/02/18 04:30:41;;;;;;;1.23;1.23;;;-0.20;99.90;;;;;;6289885;28;20272;-71
2022/02/18 04:33:46;;;;;;;1.20;1.20;;;-0.30;99.90;;;;;;6289920;28;20305;-71
2022/02/18 04:36:51;;;;;;;2.30;1.20;;;-0.30;99.90;;;;;;6289820;28;20272;-72
2022/02/18 04:39:57;;;;;;;1.40;1.30;;;-0.30;99.90;;;;;;6289171;28;20281;-72
2022/02/18 04:43:02;;;;;;;1.30;1.30;;;-0.30;99.90;;;;;;6289363;28;20304;-72
2022/02/18 04:46:09;;;;;;;1.30;1.20;;;-0.30;99.90;;;;;;6290354;28;20278;-71
2022/02/18 04:49:15;;;;;;;1.20;1.20;;;-0.30;99.90;;;;;;6271462;28;20304;-72
2022/02/18 04:52:42;;;;;;;1.40;1.37;;;-0.30;99.90;;;;;;6288977;28;20463;-72
2022/02/18 04:55:47;;;;;;;1.20;1.20;;;-0.40;99.90;;;;;;6289680;28;20451;-72
2022/02/18 04:58:52;;;;;;;1.10;1.10;;;-0.30;99.90;;;;;;6289085;28;20577;-72
2022/02/18 05:01:59;;;;;;;1.20;1.20;;;-0.30;99.90;;;;;;6288597;28;20269;-72
2022/02/18 05:05:05;;;;;;;2.00;1.20;;;-0.30;99.90;;;;;;6289156;28;20615;-71
2022/02/18 05:08:16;;;;;;;1.47;1.37;;;-0.30;99.90;;;;;;6289269;28;20289;-72
2022/02/18 05:11:21;;;;;;;2.60;1.40;;;-0.40;99.90;;;;;;6289321;28;20423;-72
2022/02/18 05:14:27;;;;;;;1.00;1.00;;;-0.40;99.90;;;;;;6288296;28;20301;-72
2022/02/18 05:17:33;;;;;;;1.10;1.10;;;-0.40;99.90;;;;;;6288235;28;20303;-72
2022/02/18 05:20:39;;;;;;;1.30;1.30;;;-0.40;99.90;;;;;;6290023;28;20273;-72
2022/02/18 05:23:45;;;;;;;1.10;1.10;;;-0.40;99.90;;;;;;6267244;28;20296;-72
2022/02/18 05:26:50;;;;;;;1.70;1.17;;;-0.40;99.90;;;;;;6264755;28;20379;-72
2022/02/18 05:29:56;;;;;;;1.40;1.40;;;-0.40;99.90;;;;;;6263370;28;20593;-71
2022/02/18 05:33:02;;;;;;;1.20;1.10;;;-0.40;99.90;;;;;;6263873;28;20297;-72
2022/02/18 05:36:08;;;;;;;1.80;1.63;;;-0.50;99.90;;;;;;6263437;28;20290;-72
2022/02/18 05:39:14;;;;;;;3.13;1.77;;;-0.40;99.90;;;;;;6263967;28;20305;-72
2022/02/18 05:42:22;;;;;;;1.57;1.47;;;-0.50;99.90;;;;;;6262961;28;20476;-72
2022/02/18 05:45:27;;;;;;;1.53;1.53;;;-0.40;99.90;;;;;;6264220;28;20569;-71
2022/02/18 05:48:34;;;;;;;1.53;1.50;;;-0.40;99.90;;;;;;6263395;28;20298;-71
2022/02/18 05:51:39;;;;;;;3.03;1.80;;;-0.50;99.90;;;;;;6263176;28;20281;-71
2022/02/18 05:54:45;;;;;;;6.43;1.70;;;-0.50;99.90;;;;;;6262441;28;20304;-71
2022/02/18 05:57:51;;;;;;;1.70;1.70;;;-0.50;99.90;;;;;;6263247;28;20306;-71
2022/02/18 06:00:56;;;;;;;2.30;2.00;;;-0.50;99.90;;;;;;6263569;28;20269;-71
2022/02/18 06:04:03;;;;;;;1.70;1.60;;;-0.50;99.90;;;;;;6263221;28;20300;-72
2022/02/18 06:07:08;;;;;;;2.10;1.90;;;-0.50;99.90;;;;;;6263132;28;20276;-72
2022/02/18 06:10:13;;;;;;;1.87;1.80;;;-0.50;99.90;;;;;;6263623;28;20264;-72
2022/02/18 06:13:23;;;;;;;1.80;1.70;;;-0.50;99.90;;;;;;6263372;28;20294;-72
2022/02/18 06:16:29;;;;;;;2.07;1.87;;;-0.50;99.90;;;;;;6262353;28;20297;-72
2022/02/18 06:19:36;;;;;;;2.10;1.83;;;-0.50;99.90;;;;;;6262130;28;20367;-72
2022/02/18 06:22:41;;;;;;;2.43;2.07;;;-0.50;99.90;;;;;;6274698;28;20595;-72
2022/02/18 06:25:46;;;;;;;1.43;1.43;;;-0.50;99.90;;;;;;6287627;28;20276;-72
2022/02/18 06:28:52;;;;;;;1.57;1.47;;;-0.50;99.90;;;;;;6286981;28;20300;-71
2022/02/18 06:31:57;;;;;;;2.00;1.70;;;-0.50;99.90;;;;;;6286906;28;20525;-72
2022/02/18 06:35:05;;;;;;;1.63;1.60;;;-0.50;99.90;;;;;;6286795;28;20292;-71
2022/02/18 06:38:11;;;;;;;1.93;1.83;;;-0.50;99.90;;;;;;6287000;28;20303;-71
2022/02/18 06:41:17;;;;;;;3.90;1.97;;;-0.50;99.90;;;;;;6286465;28;20274;-71
2022/02/18 06:44:22;;;;;;;1.60;1.60;;;-0.50;99.90;;;;;;6286488;28;20298;-71
2022/02/18 06:47:28;;;;;;;4.07;1.40;;;-0.50;99.90;;;;;;6286662;28;20295;-71
2022/02/18 06:50:35;;;;;;;1.70;1.60;;;-0.50;99.90;;;;;;6286186;28;20456;-71
2022/02/18 06:53:40;;;;;;;3.83;1.60;;;-0.40;99.90;;;;;;6286843;28;20572;-70
2022/02/18 06:56:45;;;;;;;1.60;1.50;;;-0.40;99.90;;;;;;6286236;28;20293;-70
2022/02/18 06:59:50;;;;;;;2.10;2.00;;;-0.40;99.90;;;;;;6285898;28;20296;-70
2022/02/18 07:02:56;;;;;;;1.60;1.50;;;-0.30;99.90;;;;;;6285794;28;20296;-71
2022/02/18 07:06:03;;;;;;;2.00;1.90;;;-0.30;99.90;;;;;;6287374;28;20299;-72
2022/02/18 07:09:11;;;;;;;3.80;1.63;;;-0.30;99.90;;;;;;6286595;28;20297;-71
2022/02/18 07:12:19;;;;;;;1.47;1.40;;;-0.30;99.90;;;;;;6285638;28;20297;-71
2022/02/18 07:15:26;;;;;;;1.23;1.23;;;-0.20;99.90;;;;;;6285997;28;22320;-71
2022/02/18 07:18:31;;;;;;;2.90;1.67;;;-0.20;99.90;;;;;;6285905;28;20296;-71
2022/02/18 07:21:40;;;;;;;4.70;1.47;;;-0.10;99.90;;;;;;6285503;28;20494;-71
2022/02/18 07:24:46;;;;;;;4.87;1.57;;;-0.10;99.90;;;;;;6285839;28;20309;-71
2022/02/18 07:27:52;;;;;;;5.03;1.60;;;-0.10;99.90;;;;;;6286153;28;20406;-71
2022/02/18 07:30:58;;;;;;;1.27;1.27;;;-0.10;99.90;;;;;;6287220;28;20288;-72
2022/02/18 07:34:04;;;;;;;2.00;1.50;;;0.00;99.90;;;;;;6285502;28;20297;-72
2022/02/18 07:37:12;;;;;;;2.00;1.40;;;0.10;99.90;;;;;;6284958;28;20292;-70
2022/02/18 07:40:19;;;;;;;1.60;1.50;;;0.00;99.90;;;;;;6285980;28;20274;-71
2022/02/18 07:43:24;;;;;;;1.30;1.20;;;0.10;99.90;;;;;;6285875;28;20293;-71
2022/02/18 07:46:46;;;;;;;1.70;1.53;;;0.10;99.90;;;;;;6286292;28;20582;-72
2022/02/18 07:50:12;;;;;;;1.57;1.57;;;0.10;99.90;;;;;;6285750;28;20369;-71
2022/02/18 07:53:19;;;;;;;2.37;1.20;;;0.20;99.90;;;;;;6285292;28;20301;-71
2022/02/18 07:56:24;;;;;;;1.37;1.30;;;0.20;99.90;;;;;;6285718;28;20689;-71
2022/02/18 07:59:29;;;;;;;1.40;1.30;;;0.30;99.90;;;;;;6285659;28;20297;-71
2022/02/18 08:02:34;;;;;;;1.77;1.30;;;0.30;99.90;;;;;;6285348;28;20584;-72
2022/02/18 08:05:40;;;;;;;2.03;1.20;;;0.30;99.90;;;;;;6285564;28;20273;-71
2022/02/18 08:08:47;;;;;;;1.90;1.20;;;0.40;99.90;;;;;;6285439;28;20302;-71
2022/02/18 08:11:52;;;;;;;1.47;1.20;;;0.50;99.90;;;;;;6285607;28;20272;-74
2022/02/18 08:14:58;;;;;;;1.57;1.47;;;0.50;99.90;;;;;;6285779;28;20274;-71
2022/02/18 08:18:04;;;;;;;1.27;1.27;;;0.50;99.90;;;;;;6284870;28;20296;-71
2022/02/18 08:21:12;;;;;;;1.33;1.23;;;0.50;99.90;;;;;;6285806;28;20535;-72
2022/02/18 08:24:19;;;;;;;1.53;1.43;;;0.50;99.90;;;;;;6284938;28;20297;-71
2022/02/18 08:27:25;;;;;;;1.00;1.00;;;0.60;99.90;;;;;;6285259;28;20297;-71
2022/02/18 08:30:30;;;;;;;3.03;1.20;;;0.70;99.90;;;;;;6285384;28;20275;-71
2022/02/18 08:33:35;;;;;;;2.07;1.33;;;0.80;99.90;;;;;;6289303;28;20307;-70
2022/02/18 08:36:40;;;;;;;1.30;1.30;;;0.70;99.90;;;;;;6290426;28;20299;-71
2022/02/18 08:39:47;;;;;;;1.50;1.00;;;0.80;99.90;;;;;;6289325;28;20303;-71
2022/02/18 08:42:57;;;;;;;1.70;1.27;;;0.80;99.90;;;;;;6289651;28;20301;-71
2022/02/18 08:46:02;;;;;;;1.47;1.43;;;0.80;99.90;;;;;;6290521;28;20270;-71
2022/02/18 08:49:09;;;;;;;4.20;1.20;;;0.80;99.90;;;;;;6289335;28;20297;-71
2022/02/18 08:52:15;;;;;;;1.93;1.07;;;0.90;99.90;;;;;;6289004;28;20294;-71
2022/02/18 08:55:22;;;;;;;2.20;1.07;;;0.90;99.90;;;;;;6290419;28;20271;-72
2022/02/18 08:58:28;;;;;;;4.97;1.07;;;0.90;99.90;;;;;;6289353;28;20301;-72
2022/02/18 09:01:33;;;;;;;1.97;1.00;;;0.90;99.90;;;;;;6289833;28;20279;-72
2022/02/18 09:04:39;;;;;;;1.20;1.10;;;0.90;99.90;;;;;;6289689;28;20301;-72
2022/02/18 09:07:46;;;;;;;1.47;1.20;;;1.00;99.90;;;;;;6289284;28;20294;-72
2022/02/18 09:10:53;;;;;;;1.40;1.27;;;1.00;99.90;;;;;;6289577;28;20561;-72
2022/02/18 09:13:58;;;;;;;3.70;1.37;;;1.00;99.90;;;;;;6289446;28;20297;-71
2022/02/18 09:17:04;;;;;;;2.73;1.17;;;1.10;99.90;;;;;;6271020;28;20298;-71
2022/02/18 09:20:11;;;;;;;1.00;1.00;;;1.10;99.90;;;;;;6289124;28;20293;-71
2022/02/18 09:23:17;;;;;;;1.17;1.07;;;1.10;99.90;;;;;;6288741;28;20493;-71
2022/02/18 09:26:26;;;;;;;2.17;1.20;;;1.20;99.90;;;;;;6289095;28;20274;-72
2022/02/18 09:29:34;;;;;;;3.33;1.17;;;1.20;99.90;;;;;;6289301;28;20475;-71
2022/02/18 09:32:40;;;;;;;1.90;1.00;;;1.20;99.90;;;;;;6288429;28;20563;-71
2022/02/18 09:35:48;;;;;;;2.30;1.00;;;1.30;99.90;;;;;;6288655;28;20279;-71
2022/02/18 09:38:53;;;;;;;3.10;1.13;;;1.30;99.90;;;;;;6288154;28;20302;-71
2022/02/18 09:42:01;;;;;;;3.10;1.13;;;1.30;99.90;;;;;;6287624;28;20271;-71
2022/02/18 09:45:07;;;;;;;6.27;1.00;;;1.40;99.90;;;;;;6289250;28;20546;-71
2022/02/18 09:48:15;;;;;;;4.77;1.00;;;1.50;99.90;;;;;;6279991;28;20303;-71
2022/02/18 09:51:21;;;;;;;3.07;1.30;;;1.40;99.90;;;;;;6288537;28;20455;-71
2022/02/18 09:54:27;;;;;;;1.23;1.10;;;1.40;99.90;;;;;;6288317;28;20297;-71
2022/02/18 09:57:35;;;;;;;3.03;1.20;;;1.50;99.90;;;;;;6287676;28;20294;-71
2022/02/18 10:01:01;;;;;;;1.53;1.13;;;1.50;99.90;;;;;;6288536;28;20270;-71
2022/02/18 10:04:06;;;;;;;2.53;1.00;;;1.60;99.90;;;;;;6270001;28;20294;-72
2022/02/18 10:07:13;;;;;;;2.87;0.90;;;1.50;99.90;;;;;;6287729;28;20594;-71
2022/02/18 10:10:20;;;;;;;1.10;1.10;;;1.50;99.90;;;;;;6281158;28;20268;-71
2022/02/18 10:13:36;;;;;;;1.50;1.17;;;1.60;99.90;;;;;;6287180;28;20482;-71
2022/02/18 10:16:46;;;;;;;2.97;1.20;;;1.60;99.90;;;;;;6288486;28;20274;-71
2022/02/18 10:19:53;;;;;;;1.83;1.17;;;1.60;99.90;;;;;;6287700;28;20302;-71
2022/02/18 10:23:02;;;;;;;5.40;1.50;;;1.70;99.90;;;;;;6287230;28;20501;-71
2022/02/18 10:26:07;;;;;;;11.83;1.57;;;1.70;99.90;;;;;;6287322;28;20272;-71
2022/02/18 10:29:20;;;;;;;1.10;1.10;;;1.80;99.90;;;;;;6287162;28;20300;-72
2022/02/18 10:32:26;;;;;;;1.30;1.10;;;1.80;99.90;;;;;;6287279;28;20571;-71
2022/02/18 10:35:33;;;;;;;3.30;1.20;;;1.90;99.90;;;;;;6286987;28;20273;-71
2022/02/18 10:38:40;;;;;;;1.00;1.00;;;1.90;99.90;;;;;;6286952;28;20302;-72
2022/02/18 10:41:53;;;;;;;2.23;1.00;;;2.00;99.90;;;;;;6287118;28;20276;-72
2022/02/18 10:45:11;;;;;;;3.67;1.10;;;2.00;99.90;;;;;;6285961;28;20284;-71
2022/02/18 10:48:20;;;;;;;3.40;1.10;;;2.00;99.90;;;;;;6286064;28;20303;-71
2022/02/18 10:51:30;;;;;;;1.07;0.97;;;2.10;99.90;;;;;;6286549;28;20362;-71
2022/02/18 10:54:36;;;;;;;1.10;0.93;;;2.10;99.90;;;;;;6286311;28;20300;-71
2022/02/18 10:57:42;;;;;;;1.77;1.03;;;2.10;99.90;;;;;;6286565;28;20293;-71
2022/02/18 11:01:01;;;;;;;1.17;1.00;;;2.20;99.90;;;;;;6285991;28;20313;-71
2022/02/18 11:04:07;;;;;;;2.70;0.90;;;2.30;99.90;;;;;;6286424;28;20598;-71
2022/02/18 11:07:13;;;;;;;2.23;0.90;;;2.30;99.90;;;;;;6286505;28;20274;-71
2022/02/18 11:10:34;;;;;;;3.07;1.13;;;2.30;99.90;;;;;;6285893;28;20271;-71
2022/02/18 11:13:40;;;;;;;1.80;0.87;;;2.40;99.90;;;;;;6286126;28;20295;-71
2022/02/18 11:16:52;;;;;;;2.73;1.00;;;2.40;99.90;;;;;;6286424;28;20566;-70
2022/02/18 11:19:58;;;;;;;1.20;0.83;;;2.50;99.90;;;;;;6285169;28;20297;-70
2022/02/18 11:23:04;;;;;;;0.87;0.77;;;2.50;99.90;;;;;;6285755;28;20302;-74
2022/02/18 11:26:12;;;;;;;0.90;0.90;;;2.60;99.90;;;;;;6286450;28;20353;-71
2022/02/18 11:29:17;;;;;;;2.20;0.90;;;2.70;99.90;;;;;;6285490;28;20302;-72
2022/02/18 11:32:27;;;;;;;2.87;1.10;;;2.70;99.90;;;;;;6285538;28;20314;-71
2022/02/18 11:36:11;;;;;;;6.53;0.90;;;2.80;99.90;;;;;;6286420;28;20275;-71
2022/02/18 11:39:58;;;;;;;0.90;0.90;;;2.80;99.90;;;;;;6285907;28;20471;-71
2022/02/18 11:43:27;;;;;;;1.00;1.00;;;2.80;99.90;;;;;;6268226;28;20295;-70
2022/02/18 11:46:33;;;;;;;1.87;1.00;;;2.90;99.90;;;;;;6286168;28;20267;-71
2022/02/18 11:49:40;;;;;;;1.00;1.00;;;3.00;99.90;;;;;;6285687;28;20297;-71
2022/02/18 11:52:49;;;;;;;1.27;1.10;;;2.90;99.90;;;;;;6285220;28;20301;-71
2022/02/18 11:55:54;;;;;;;2.77;1.13;;;2.90;99.90;;;;;;6285318;28;20267;-71
2022/02/18 11:59:02;;;;;;;1.20;1.10;;;3.10;99.90;;;;;;6285851;28;20473;-71
2022/02/18 12:02:13;;;;;;;0.80;0.80;;;3.10;99.60;;;;;;6285481;28;20275;-71
2022/02/18 12:05:20;;;;;;;1.70;1.03;;;3.10;99.90;;;;;;6285407;28;20294;-71
2022/02/18 12:08:30;;;;;;;1.63;0.87;;;3.20;99.60;;;;;;6290583;28;20295;-71
2022/02/18 12:11:43;;;;;;;0.80;0.80;;;3.30;98.70;;;;;;6291059;28;20541;-71
2022/02/18 12:14:50;;;;;;;0.73;0.73;;;3.30;98.90;;;;;;6289711;28;20298;-71
2022/02/18 12:18:03;;;;;;;0.90;0.90;;;3.30;98.90;;;;;;6290003;28;20294;-71
2022/02/18 12:21:14;;;;;;;0.80;0.80;;;3.30;98.90;;;;;;6290804;28;20299;-71
2022/02/18 12:24:43;;;;;;;2.63;1.10;;;3.30;99.30;;;;;;6265057;28;20292;-71
2022/02/18 12:27:50;;;;;;;0.70;0.70;;;3.20;99.80;;;;;;6264652;28;20297;-71
2022/02/18 12:30:57;;;;;;;2.37;0.90;;;3.30;99.30;;;;;;6265417;28;20278;-71
2022/02/18 12:34:04;;;;;;;1.07;0.90;;;3.30;98.80;;;;;;6264937;28;20296;-71
2022/02/18 12:37:13;;;;;;;5.20;1.03;;;3.30;98.80;;;;;;6265714;28;20274;-70
2022/02/18 12:40:20;;;;;;;3.67;0.80;;;3.40;98.70;;;;;;6264907;28;20293;-70
2022/02/18 12:43:26;;;;;;;1.17;0.73;;;3.40;99.20;;;;;;6264657;28;20297;-70
2022/02/18 12:46:31;;;;;;;0.80;0.80;;;3.40;98.30;;;;;;6264829;28;20275;-71
2022/02/18 12:49:43;;;;;;;2.53;1.20;;;3.40;98.10;;;;;;6264688;28;20302;-71
2022/02/18 12:52:54;;;;;;;1.90;0.80;;;3.40;98.10;;;;;;6264878;28;20296;-72
2022/02/18 12:56:00;;;;;;;3.67;0.67;;;3.60;97.10;;;;;;6264779;28;20430;-71
2022/02/18 12:59:06;;;;;;;1.03;0.70;;;3.60;97.50;;;;;;6264603;28;20307;-71
2022/02/18 13:02:11;;;;;;;2.17;0.90;;;3.70;96.90;;;;;;6264452;28;20297;-72
2022/02/18 13:05:18;;;;;;;0.80;0.63;;;3.50;97.50;;;;;;6257315;28;20274;-71
2022/02/18 13:08:26;;;;;;;0.60;0.60;;;3.50;98.00;;;;;;6246859;28;20303;-73
2022/02/18 13:11:32;;;;;;;1.27;0.90;;;3.50;97.90;;;;;;6264294;28;20275;-72
2022/02/18 13:14:38;;;;;;;4.60;0.87;;;3.60;97.80;;;;;;6264667;28;20306;-72
2022/02/18 13:17:47;;;;;;;2.37;0.93;;;3.70;97.70;;;;;;6263219;28;20299;-71
2022/02/18 13:20:53;;;;;;;0.70;0.70;;;3.60;97.80;;;;;;6264849;28;20294;-71
2022/02/18 13:24:00;;;;;;;1.17;0.80;;;3.60;97.70;;;;;;6287072;28;20303;-72
2022/02/18 13:27:15;;;;;;;0.83;0.70;;;3.60;97.70;;;;;;6288042;28;20282;-72
2022/02/18 13:30:23;;;;;;;0.80;0.80;;;3.60;97.90;;;;;;6288733;28;20277;-71
2022/02/18 13:33:31;;;;;;;1.43;0.67;;;3.70;97.70;;;;;;6288698;28;20600;-71
2022/02/18 13:36:37;;;;;;;11.03;1.00;;;3.80;97.20;;;;;;6288754;28;20270;-71
2022/02/18 13:39:47;;;;;;;0.60;0.60;;;3.70;97.60;;;;;;6288156;28;20298;-71
2022/02/18 13:42:54;;;;;;;0.70;0.70;;;3.70;97.70;;;;;;6288378;28;20297;-72
2022/02/18 13:46:00;;;;;;;0.70;0.70;;;3.90;96.70;;;;;;6288843;28;20458;-71
2022/02/18 13:49:13;;;;;;;0.40;0.40;;;3.80;96.60;;;;;;6288567;28;20311;-71
2022/02/18 13:52:18;;;;;;;2.37;0.70;;;4.10;95.30;;;;;;6287795;28;20299;-71
2022/02/18 13:55:27;;;;;;;0.83;0.80;;;4.00;95.50;;;;;;6288039;28;20457;-71
2022/02/18 13:58:32;;;;;;;0.70;0.70;;;4.10;95.60;;;;;;6287739;28;20297;-72
2022/02/18 14:01:38;;;;;;;0.87;0.87;;;4.00;95.90;;;;;;6287738;28;20344;-71
2022/02/18 14:04:46;;;;;;;1.20;0.57;;;4.00;96.60;;;;;;6287867;28;20294;-71
2022/02/18 14:08:05;;;;;;;2.53;0.93;;;3.90;96.70;;;;;;6288392;28;20457;-71
2022/02/18 14:11:13;;;;;;;0.77;0.77;;;3.90;97.20;;;;;;6270129;28;20274;-72
2022/02/18 14:14:20;;;;;;;1.60;0.80;;;4.00;96.40;;;;;;6287324;28;20302;-72
2022/02/18 14:17:27;;;;;;;0.70;0.70;;;3.90;97.10;;;;;;6287339;28;20295;-72
2022/02/18 14:20:33;;;;;;;3.10;0.90;;;3.90;97.50;;;;;;6288244;28;20271;-71
2022/02/18 14:23:39;;;;;;;2.33;0.90;;;3.80;97.50;;;;;;6286918;28;20302;-72
2022/02/18 14:26:49;;;;;;;1.63;0.70;;;3.80;97.70;;;;;;6287909;28;20409;-71
2022/02/18 14:29:56;;;;;;;1.00;1.00;;;3.90;97.40;;;;;;6286051;28;20278;-70
2022/02/18 14:33:01;;;;;;;0.97;0.60;;;3.80;97.60;;;;;;6286953;28;20355;-72
2022/02/18 14:36:09;;;;;;;4.00;1.00;;;3.70;97.90;;;;;;6286797;28;20274;-72
2022/02/18 14:39:16;;;;;;;0.90;0.90;;;3.70;97.90;;;;;;6286690;28;20297;-72
2022/02/18 14:42:32;;;;;;;3.97;1.00;;;3.60;98.10;;;;;;6286915;28;20302;-74
2022/02/18 14:45:38;;;;;;;5.50;0.90;;;3.60;98.50;;;;;;6270210;28;20274;-72
2022/02/18 14:48:44;;;;;;;6.23;1.17;;;3.60;97.80;;;;;;6287188;28;20586;-71
2022/02/18 14:51:50;;;;;;;4.87;1.10;;;3.50;97.70;;;;;;6286560;28;20460;-70
2022/02/18 14:54:56;;;;;;;5.93;1.07;;;3.60;97.50;;;;;;6286549;28;20278;-73
2022/02/18 14:58:05;;;;;;;3.00;0.63;;;3.60;97.10;;;;;;6286206;28;20302;-72
2022/02/18 15:01:11;;;;;;;7.27;1.20;;;3.70;96.80;;;;;;6286912;28;20267;-73
2022/02/18 15:04:17;;;;;;;1.00;1.00;;;3.60;97.30;;;;;;6286953;28;20300;-71
2022/02/18 15:07:22;;;;;;;0.70;0.70;;;3.60;97.50;;;;;;6286212;28;20291;-72
2022/02/18 15:10:28;;;;;;;1.57;0.90;;;3.50;97.50;;;;;;6285897;28;20564;-71
2022/02/18 15:13:37;;;;;;;1.50;0.77;;;3.60;96.70;;;;;;6285801;28;20298;-72
2022/02/18 15:16:43;;;;;;;1.00;1.00;;;3.50;97.50;;;;;;6286449;28;20294;-72
2022/02/18 15:19:49;;;;;;;1.00;0.90;;;3.30;98.40;;;;;;6286123;28;20314;-72
2022/02/18 15:22:55;;;;;;;6.20;1.20;;;3.30;98.10;;;;;;6286264;28;20306;-72
2022/02/18 15:26:00;;;;;;;5.30;1.10;;;3.20;99.00;;;;;;6285876;28;20273;-74
2022/02/18 15:29:07;;;;;;;6.13;1.13;;;3.10;99.10;;;;;;6286242;28;20302;-72
2022/02/18 15:35:53;;;;;;;6.47;2.17;;;2.90;99.90;;;;;;6286112;28;20274;-72
2022/02/18 15:42:22;;;;;;;12.20;2.40;;;2.80;99.90;;;;;;6285308;28;20318;-72
2022/02/18 15:45:28;;;;;;;6.43;2.07;;;2.70;99.90;;;;;;6286268;28;20270;-74
2022/02/18 15:48:34;;;;;;;2.90;2.40;;;2.70;99.90;;;;;;6284959;28;20542;-71
2022/02/18 15:51:39;;;;;;;11.70;2.30;;;2.50;99.90;;;;;;6285940;28;20274;-72
2022/02/18 15:54:46;;;;;;;8.43;1.90;;;2.40;99.90;;;;;;6285361;28;20306;-72
2022/02/18 15:57:51;;;;;;;3.70;1.90;;;2.40;99.90;;;;;;6284917;28;20476;-72
2022/02/18 16:00:58;;;;;;;11.03;2.10;;;2.30;99.90;;;;;;6286340;28;20278;-71
2022/02/18 16:04:04;;;;;;;9.43;2.20;;;2.20;99.90;;;;;;6285585;28;20290;-73
2022/02/18 16:07:13;;;;;;;11.13;1.83;;;2.20;99.90;;;;;;6285405;28;20273;-72
2022/02/18 16:10:18;;;;;;;11.70;2.20;;;2.10;99.90;;;;;;6285952;28;20262;-72
2022/02/18 16:13:24;;;;;;;12.97;2.30;;;2.10;99.90;;;;;;6285119;28;20301;-72
2022/02/18 16:16:31;;;;;;;8.50;2.40;;;2.00;99.90;;;;;;6267688;28;20457;-72
2022/02/18 16:19:36;;;;;;;12.80;2.33;;;2.00;99.90;;;;;;6285744;28;20298;-72
2022/02/18 16:22:42;;;;;;;2.37;1.90;;;2.00;99.90;;;;;;6285318;28;20299;-73
2022/02/18 16:25:48;;;;;;;6.30;1.90;;;1.90;99.90;;;;;;6286473;28;20273;-72
2022/02/18 16:28:53;;;;;;;2.57;1.57;;;1.90;99.90;;;;;;6285124;28;20295;-72
2022/02/18 16:32:00;;;;;;;1.53;1.10;;;2.00;99.90;;;;;;6285306;28;20299;-73
2022/02/18 16:35:06;;;;;;;9.10;1.70;;;2.00;99.90;;;;;;6285709;28;20276;-72